Latest Weather Observations for Scherger

IDQ60801

Issued at 7:31 am EST Sunday 26 April 2015 (issued every 30 minutes, with the page automatically refreshed every 10 minutes)

About weather observations | Map of weather stations | Latest weather observations for QLD | Other Formats
Station Details ID: 027075 Name: SCHERGER RAAF Lat: -12.62 Lon: 142.09 Height: 39.34 m
Data from the previous 72 hours. | See also: Recent months at Scherger
Date/Time
EST
Temp
°C
App
Temp
°C
Dew
Point
Rel
Hum
%
Delta-T
°C
Wind Press
QNH
hPa
Press
MSL
hPa
Rain
since 9 am
mm
Dir
 
Spd
km/h
Gust
km/h
Spd
kts
Gust
kts
26/07:30am 23.8 28.2 22.1 90 1.1 SE 2 6 1 3 1012.0 1011.8 0.0
26/07:00am 22.5 26.9 21.3 93 0.8 CALM 0 0 0 0 1011.6 1011.3 0.0
26/06:30am 22.4 26.7 21.2 93 0.8 CALM 0 0 0 0 1011.4 1011.1 0.0
26/06:00am 22.6 26.9 21.2 92 0.9 CALM 0 0 0 0 1011.2 1010.9 0.0
26/05:30am 22.8 27.2 21.3 91 1.0 CALM 0 0 0 0 1011.1 1010.8 0.0
26/05:00am 23.2 27.7 21.6 91 1.1 CALM 0 0 0 0 1011.0 1010.7 0.0
26/04:30am 23.3 27.9 21.7 91 1.1 CALM 0 0 0 0 1011.1 1010.8 0.0
26/04:00am 23.4 28.0 21.7 90 1.1 CALM 0 0 0 0 1011.2 1010.9 0.0
26/03:30am 23.9 28.7 22.2 90 1.1 CALM 0 0 0 0 1011.2 1010.9 0.0
26/03:00am 23.9 28.7 22.2 90 1.1 CALM 0 0 0 0 1011.2 1010.9 0.0
26/02:30am 23.9 28.8 22.3 91 1.1 CALM 0 0 0 0 1011.2 1010.9 0.0
26/02:00am 23.9 28.7 22.2 90 1.1 CALM 0 0 0 0 1011.2 1010.9 0.0
26/01:30am 24.2 29.1 22.3 89 1.3 CALM 0 0 0 0 1011.4 1011.1 0.0
26/01:00am 24.5 29.3 22.2 87 1.5 CALM 0 0 0 0 1011.6 1011.3 0.0
26/12:30am 24.9 30.0 22.6 87 1.5 CALM 0 0 0 0 1012.1 1011.9 0.0
26/12:00am 25.1 30.2 22.6 86 1.7 CALM 0 0 0 0 1012.3 1012.1 0.0
 
Date/Time
EST
Temp
°C
App
Temp
°C
Dew
Point
Rel
Hum
%
Delta-T
°C
Wind Press
QNH
hPa
Press
MSL
hPa
Rain
since 9 am
mm
Dir
 
Spd
km/h
Gust
km/h
Spd
kts
Gust
kts
25/11:30pm 25.7 31.0 23.0 85 1.8 CALM 0 0 0 0 1012.6 1012.4 0.0
25/11:00pm 25.7 29.8 23.0 85 1.8 NE 6 11 3 6 1012.5 1012.3 0.0
25/10:30pm 25.1 29.1 22.8 87 1.6 NE 6 7 3 4 1012.4 1012.2 0.0
25/10:00pm 25.0 30.1 22.7 87 1.6 CALM 0 0 0 0 1012.3 1012.1 0.0
25/09:30pm 25.3 30.4 22.6 85 1.8 CALM 0 0 0 0 1012.1 1011.9 0.0
25/09:00pm 25.7 30.5 22.2 81 2.3 CALM 0 0 0 0 1012.0 1011.8 0.0
25/08:30pm 26.0 29.7 22.3 80 2.5 NE 6 11 3 6 1011.4 1011.1 0.0
25/08:00pm 26.5 30.5 22.1 77 3.0 WSW 4 7 2 4 1010.8 1010.5 0.0
25/07:30pm 26.8 30.4 22.0 75 3.2 W 6 9 3 5 1010.2 1009.9 0.0
25/07:00pm 27.2 30.9 22.2 74 3.4 WSW 6 9 3 5 1009.6 1009.3 0.0
25/06:30pm 27.9 32.2 22.6 73 3.6 W 4 9 2 5 1009.2 1008.9 0.0
25/06:00pm 28.8 32.7 22.5 68 4.3 WNW 6 13 3 7 1008.9 1008.6 0.0
25/05:30pm 30.3 34.5 22.5 63 5.3 NW 4 13 2 7 1008.7 1008.4 0.0
25/05:00pm 31.7 36.5 22.1 56 6.5 CALM 0 6 0 3 1008.3 1008.0 0.0
25/04:30pm 32.5 35.3 20.4 49 8.1 S 6 7 3 4 1008.1 1007.8 0.0
25/04:00pm 32.1 35.3 19.7 48 8.2 SE 2 9 1 5 1007.9 1007.6 0.0
25/03:30pm 33.3 36.1 20.8 48 8.4 E 7 17 4 9 1007.9 1007.6 0.0
25/03:00pm 33.0 36.2 20.5 47 8.4 E 4 11 2 6 1008.0 1007.7 0.0
25/02:30pm 33.2 36.6 21.7 51 7.8 NE 6 13 3 7 1008.4 1008.1 0.0
25/02:00pm 33.0 36.1 22.1 52 7.5 ENE 9 17 5 9 1008.7 1008.4 0.0
25/01:30pm 30.9 34.2 21.4 57 6.4 E 6 13 3 7 1009.2 1008.9 0.0
25/01:00pm 32.3 35.2 21.8 54 7.1 NE 9 15 5 8 1009.5 1009.2 0.0
25/12:30pm 32.2 36.1 22.6 57 6.6 ENE 6 11 3 6 1009.9 1009.6 0.0
25/12:00pm 31.5 34.4 21.7 56 6.6 ENE 9 15 5 8 1010.4 1010.1 0.0
25/11:30am 31.3 35.2 22.6 60 6.0 SSE 6 17 3 9 1010.8 1010.5 0.0
25/11:00am 30.6 34.9 22.7 62 5.4 ENE 4 11 2 6 1011.4 1011.1 0.0
25/10:30am 29.7 33.0 21.9 63 5.3 ENE 7 15 4 8 1011.7 1011.4 0.0
25/10:00am 28.5 33.2 22.7 71 3.9 E 2 7 1 4 1011.8 1011.5 0.0
25/09:30am 27.6 32.9 23.0 76 3.1 CALM 0 0 0 0 1011.8 1011.5 0.0
25/09:00am 26.4 30.7 22.0 77 3.0 NE 2 7 1 4 1011.6 1011.3 0.0
25/08:52am 26.5 31.3 22.8 80 2.5 NE 2 7 1 4 1011.6 1011.3 0.0
25/08:31am 25.6 30.8 22.9 85 1.8 CALM 0 0 0 0 1011.4 1011.1 0.0
25/08:30am 25.5 30.7 22.8 85 1.8 CALM 0 0 0 0 1011.4 1011.1 0.0
25/08:00am 24.7 29.8 22.6 88 1.4 CALM 0 7 0 4 1011.2 1010.9 0.0
25/07:30am 24.0 29.1 22.6 92 0.9 CALM 0 0 0 0 1010.9 1010.6 0.0
25/07:00am 23.6 28.7 22.6 94 0.7 CALM 0 0 0 0 1010.5 1010.2 0.0
25/06:30am 23.0 27.6 21.8 93 0.8 CALM 0 0 0 0 1010.4 1010.1 0.0
25/06:00am 22.9 27.5 21.7 93 0.8 CALM 0 0 0 0 1010.1 1009.8 0.0
25/05:30am 23.0 27.6 21.8 93 0.8 CALM 0 0 0 0 1009.9 1009.6 0.0
25/05:00am 23.0 27.6 21.8 93 0.8 CALM 0 0 0 0 1009.8 1009.5 0.0
25/04:30am 23.1 27.7 21.7 92 0.9 CALM 0 6 0 3 1009.8 1009.5 0.0
25/04:00am 23.4 28.1 22.0 92 0.9 CALM 0 0 0 0 1009.9 1009.6 0.0
25/03:30am 23.7 28.5 22.1 91 1.1 CALM 0 0 0 0 1009.8 1009.5 0.0
25/03:00am 23.9 28.9 22.5 92 0.9 CALM 0 0 0 0 1009.9 1009.6 0.0
25/02:30am 23.8 28.6 22.2 91 1.1 CALM 0 0 0 0 1009.8 1009.5 0.0
25/02:00am 24.1 29.2 22.7 92 0.9 CALM 0 0 0 0 1009.8 1009.5 0.0
25/01:30am 24.1 29.1 22.5 91 1.1 CALM 0 0 0 0 1010.1 1009.8 0.0
25/01:00am 24.4 29.5 22.7 90 1.1 CALM 0 0 0 0 1010.2 1009.9 0.0
25/12:30am 24.7 29.5 22.9 90 1.2 NE 2 7 1 4 1010.4 1010.1 0.0
25/12:00am 24.8 29.7 23.0 90 1.2 NE 2 7 1 4 1010.6 1010.3 0.0
 
Date/Time
EST
Temp
°C
App
Temp
°C
Dew
Point
Rel
Hum
%
Delta-T
°C
Wind Press
QNH
hPa
Press
MSL
hPa
Rain
since 9 am
mm
Dir
 
Spd
km/h
Gust
km/h
Spd
kts
Gust
kts
24/11:30pm 24.7 29.4 22.6 88 1.4 NE 2 9 1 5 1010.5 1010.2 0.0
24/11:00pm 25.1 30.4 23.0 88 1.4 CALM 0 0 0 0 1010.6 1010.3 0.0
24/10:30pm 25.0 30.3 23.1 89 1.3 CALM 0 0 0 0 1010.5 1010.2 0.0
24/10:00pm 24.8 29.8 22.5 87 1.5 CALM 0 2 0 1 1010.6 1010.3 0.0
24/09:30pm 25.1 29.0 22.6 86 1.7 ENE 6 9 3 5 1010.6 1010.3 0.0
24/09:00pm 25.8 30.6 22.1 80 2.5 CALM 0 0 0 0 1010.2 1009.9 0.0
24/08:30pm 26.2 31.3 22.7 81 2.4 CALM 0 0 0 0 1010.0 1009.7 0.0
24/08:00pm 26.6 31.8 22.9 80 2.5 CALM 0 0 0 0 1009.7 1009.4 0.0
24/07:30pm 26.8 32.2 23.3 81 2.4 CALM 0 0 0 0 1009.1 1008.8 0.0
24/07:00pm 27.4 31.9 23.0 77 3.0 W 4 9 2 5 1008.8 1008.5 0.0
24/06:30pm 28.0 32.6 23.1 74 3.3 W 4 9 2 5 1008.6 1008.3 0.0
24/06:00pm 28.8 34.4 23.5 73 3.7 CALM 0 0 0 0 1008.5 1008.2 0.0
24/05:30pm 29.7 34.8 22.7 66 4.8 CALM 0 0 0 0 1008.3 1008.0 0.0
24/05:00pm 31.0 35.2 20.9 55 6.8 CALM 0 0 0 0 1008.0 1007.7 0.0
24/04:30pm 31.3 36.0 22.0 57 6.3 CALM 0 7 0 4 1007.9 1007.6 0.0
24/04:00pm 31.5 36.2 21.9 56 6.5 CALM 0 6 0 3 1008.0 1007.7 0.0
24/03:30pm 31.4 35.8 22.1 57 6.3 WSW 2 7 1 4 1007.9 1007.6 0.0
24/03:00pm 30.7 34.6 21.8 59 6.0 SSE 4 9 2 5 1008.1 1007.8 0.0
24/02:30pm 31.0 34.6 21.2 56 6.6 SSE 4 9 2 5 1008.3 1008.0 0.0
24/02:00pm 31.3 35.0 21.5 56 6.6 E 4 9 2 5 1008.7 1008.4 0.0
24/01:30pm 31.2 35.0 21.7 57 6.4 ESE 4 9 2 5 1009.1 1008.8 0.0
24/01:00pm 30.8 34.3 21.9 59 6.0 SSE 6 13 3 7 1009.4 1009.1 0.0
24/12:30pm 31.0 35.0 22.0 58 6.1 E 4 9 2 5 1010.1 1009.8 0.0
24/12:00pm 30.2 34.0 22.4 63 5.3 E 6 13 3 7 1010.6 1010.3 0.0
24/11:30am 30.0 34.2 22.4 63 5.2 SE 4 13 2 7 1011.0 1010.7 0.0
24/11:00am 29.6 33.6 22.1 64 5.1 ENE 4 7 2 4 1011.2 1010.9 0.0
24/10:30am 28.8 32.5 22.5 68 4.3 ENE 7 13 4 7 1011.4 1011.1 0.0
24/10:00am 27.9 31.2 22.6 73 3.6 E 9 15 5 8 1011.7 1011.4 0.0
24/09:30am 27.3 31.9 23.1 78 2.9 ENE 4 11 2 6 1011.6 1011.3 0.0
24/09:00am 26.2 30.7 22.9 82 2.2 E 4 9 2 5 1011.5 1011.2 2.0
24/08:30am 25.1 30.1 23.2 89 1.3 E 2 7 1 4 1011.0 1010.7 2.0
24/08:00am 24.0 29.2 22.8 93 0.8 CALM 0 0 0 0 1010.9 1010.6 2.0
24/07:30am 23.3 28.2 22.3 94 0.7 CALM 0 0 0 0 1010.8 1010.5 2.0
24/07:00am 22.7 27.2 21.5 93 0.8 CALM 0 0 0 0 1010.5 1010.2 2.0
24/06:30am 22.5 26.9 21.3 93 0.8 CALM 0 0 0 0 1009.9 1009.6 2.0
24/06:00am 22.7 27.2 21.5 93 0.8 CALM 0 0 0 0 1009.8 1009.5 2.0
24/05:30am 23.0 27.5 21.6 92 0.9 CALM 0 0 0 0 1009.5 1009.2 2.0
24/05:00am 23.1 27.7 21.7 92 0.9 CALM 0 0 0 0 1009.3 1009.0 2.0
24/04:30am 23.4 28.2 22.2 93 0.8 CALM 0 0 0 0 1009.3 1009.0 2.0
24/04:00am 23.3 28.0 21.9 92 0.9 CALM 0 0 0 0 1009.5 1009.2 2.0
24/03:30am 23.2 27.7 21.6 91 1.1 CALM 0 0 0 0 1009.5 1009.2 2.0
24/03:00am 23.5 28.1 21.8 90 1.1 CALM 0 0 0 0 1009.6 1009.3 2.0
24/02:30am 23.7 28.5 22.1 91 1.1 CALM 0 0 0 0 1009.9 1009.6 2.0
24/02:00am 23.9 28.7 22.2 90 1.1 CALM 0 0 0 0 1010.1 1009.8 2.0
24/01:30am 24.3 29.4 22.7 91 1.1 CALM 0 0 0 0 1010.3 1010.0 2.0
24/01:00am 24.1 28.9 22.2 89 1.3 CALM 0 0 0 0 1010.4 1010.1 2.0
24/12:30am 24.4 29.5 22.7 90 1.1 CALM 0 7 0 4 1010.7 1010.4 2.0
24/12:00am 24.6 29.5 23.0 91 1.1 NNE 2 6 1 3 1010.8 1010.5 2.0
 
Date/Time
EST
Temp
°C
App
Temp
°C
Dew
Point
Rel
Hum
%
Delta-T
°C
Wind Press
QNH
hPa
Press
MSL
hPa
Rain
since 9 am
mm
Dir
 
Spd
km/h
Gust
km/h
Spd
kts
Gust
kts
23/11:30pm 25.0 30.5 23.4 91 1.1 CALM 0 0 0 0 1010.8 1010.5 2.0
23/11:00pm 25.1 30.1 23.2 89 1.3 NNE 2 7 1 4 1010.7 1010.4 2.0
23/10:30pm 25.2 29.9 23.3 89 1.3 NNE 4 13 2 7 1010.5 1010.2 2.0
23/10:00pm 25.4 29.8 23.5 89 1.3 NE 6 11 3 6 1010.4 1010.1 2.0
23/09:30pm 25.9 29.7 23.4 86 1.7 ENE 9 17 5 9 1010.2 1009.9 2.0
23/09:00pm 27.4 32.5 23.4 79 2.7 SSE 2 7 1 4 1010.0 1009.7 0.0
23/08:30pm 27.5 33.3 23.9 81 2.5 CALM 0 6 0 3 1009.6 1009.3 0.0
23/08:00pm 27.6 33.3 23.8 80 2.6 CALM 0 0 0 0 1009.2 1008.9 0.0
23/07:30pm 27.4 32.1 23.4 79 2.7 E 4 9 2 5 1008.7 1008.4 0.0
23/07:00pm 27.8 33.0 23.6 78 2.9 WSW 2 9 1 5 1008.2 1007.9 0.0
23/06:30pm 28.5 33.5 22.5 70 4.1 CALM 0 0 0 0 1007.8 1007.5 0.0
23/06:00pm 29.6 34.4 22.1 64 5.1 CALM 0 0 0 0 1007.5 1007.2 0.0
23/05:30pm 31.5 36.1 21.7 56 6.6 CALM 0 0 0 0 1007.5 1007.2 0.0
23/05:00pm 31.9 36.2 21.1 52 7.3 CALM 0 0 0 0 1007.3 1007.0 0.0
23/04:30pm 31.3 35.5 21.8 57 6.4 SSW 2 7 1 4 1007.2 1006.9 0.0
23/04:00pm 32.7 36.8 22.2 54 7.2 E 4 9 2 5 1007.1 1006.8 0.0
23/03:30pm 32.6 36.8 21.8 53 7.3 S 2 11 1 6 1007.3 1007.0 0.0
23/03:00pm 32.7 37.0 21.9 53 7.4 S 2 13 1 7 1007.5 1007.2 0.0
23/02:30pm 31.9 35.7 21.7 54 6.9 ESE 4 11 2 6 1007.8 1007.5 0.0
23/02:00pm 31.2 35.2 21.4 56 6.6 E 2 7 1 4 1008.4 1008.1 0.0
23/01:30pm 32.4 35.8 21.6 53 7.3 SE 6 13 3 7 1009.0 1008.7 0.0
23/01:00pm 30.9 33.8 21.7 58 6.2 SSE 9 17 5 9 1009.6 1009.3 0.0
23/12:30pm 31.5 35.2 22.5 59 6.2 SE 7 15 4 8 1010.1 1009.8 0.0
23/12:00pm 30.5 34.5 22.7 63 5.3 E 6 13 3 7 1010.6 1010.3 0.0
23/11:30am 30.4 34.0 22.3 62 5.5 SE 7 17 4 9 1011.0 1010.7 0.0
23/11:00am 30.5 33.6 22.1 61 5.7 ESE 9 20 5 11 1011.3 1011.0 0.0
23/10:30am 29.4 32.2 21.6 63 5.2 ESE 9 17 5 9 1011.7 1011.4 0.0
23/10:00am 29.2 31.9 22.2 66 4.7 E 11 17 6 9 1011.9 1011.6 0.0
23/09:30am 28.2 31.3 22.2 70 4.1 E 9 17 5 9 1012.0 1011.8 0.0
23/09:00am 27.1 30.8 22.5 76 3.1 E 7 17 4 9 1011.9 1011.6 0.0
23/08:30am 25.5 30.3 22.8 85 1.8 SE 2 9 1 5 1011.7 1011.4 0.0
23/08:00am 24.2 29.2 22.5 90 1.1 CALM 0 0 0 0 1011.8 1011.5 0.0

Other Formats:

Comma delimited format used in spreadsheet applications
http://www.bom.gov.au/fwo/IDQ60801/IDQ60801.94171.axf

JavaScript Object Notation format (JSON) in row-major order
http://www.bom.gov.au/fwo/IDQ60801/IDQ60801.94171.json